Terminal Aerodrome Forecast
Issued by NWS Dodge City, KS

Home | Current Version | Previous Version | Graphics & Text | Print | Product List | Glossary Off
Versions: 1 2 3 4 5 6 7 8 9 10 11 12 13 14 15 16 17 18 19 20 21 22 23 24 25 26 27 28 29 30 31 32 33 34 35 36 37 38 39 40 41 42 43 44

000
FTUS43 KDDC 241120
TAFDDC
TAF
KDDC 241120Z 2412/2512 VRB04KT P6SM BKN200
     FM241800 06009KT P6SM VCSH OVC150
     FM242200 05009KT P6SM VCTS BKN070CB
     FM250300 07006KT P6SM -SHRA OVC100
     FM250600 05007KT 5SM -SHRA OVC040
     FM250900 05007KT 3SM BR VCSH OVC009=

USA.gov is the U.S. government's official web portal to all federal, state and local government web resources and services.